createdAt,value
2017-06-18T00:02:20.462Z,8.67
2017-06-18T00:04:48.331Z,6.23
2017-06-18T00:07:16.196Z,6.80
2017-06-18T00:09:44.065Z,8.80
2017-06-18T00:12:11.932Z,7.90
2017-06-18T00:14:39.756Z,9.40
2017-06-18T00:17:07.668Z,7.90
2017-06-18T00:19:35.527Z,9.47
2017-06-18T00:22:03.401Z,7.30
2017-06-18T00:24:31.272Z,7.37
2017-06-18T00:26:59.136Z,5.10
2017-06-18T00:29:27.001Z,6.90
2017-06-18T00:31:54.867Z,5.20
2017-06-18T00:34:22.739Z,5.90
2017-06-18T00:36:50.601Z,8.00
2017-06-18T00:39:18.461Z,4.83
2017-06-18T00:41:46.330Z,7.07
2017-06-18T00:44:14.197Z,5.73
2017-06-18T00:46:42.063Z,6.93
2017-06-18T00:49:09.939Z,4.83
2017-06-18T00:51:37.799Z,6.87
2017-06-18T00:54:05.669Z,5.00
2017-06-18T00:56:33.374Z,4.97
2017-06-18T00:59:01.198Z,4.70
2017-06-18T01:01:29.058Z,7.60
2017-06-18T01:03:56.928Z,7.50
2017-06-18T01:06:24.798Z,7.07
2017-06-18T01:08:52.627Z,6.43
2017-06-18T01:11:20.409Z,6.47
2017-06-18T01:13:48.173Z,6.10
2017-06-18T01:16:15.938Z,7.50
2017-06-18T01:18:43.567Z,4.17
2017-06-18T01:21:11.225Z,6.00
2017-06-18T01:23:38.941Z,7.00
2017-06-18T01:26:06.606Z,4.33
2017-06-18T01:28:34.349Z,6.67
2017-06-18T01:31:01.978Z,5.37
2017-06-18T01:33:29.696Z,9.30
2017-06-18T01:35:57.314Z,4.70
2017-06-18T01:38:25.019Z,8.60
2017-06-18T01:40:52.679Z,5.10
2017-06-18T01:43:20.751Z,4.60
2017-06-18T01:45:48.498Z,8.43
2017-06-18T01:48:16.118Z,5.33
2017-06-18T01:50:43.840Z,5.80
2017-06-18T01:53:11.500Z,5.90
2017-06-18T01:55:39.346Z,7.30
2017-06-18T01:58:06.973Z,5.57
2017-06-18T02:00:34.692Z,8.80
2017-06-18T02:03:02.434Z,6.23
2017-06-18T02:05:30.093Z,8.57
2017-06-18T02:07:57.742Z,8.87
2017-06-18T02:10:25.383Z,8.77
2017-06-18T02:12:53.081Z,9.17
2017-06-18T02:15:20.846Z,5.40
2017-06-18T02:17:48.631Z,5.30
2017-06-18T02:20:16.376Z,6.70
2017-06-18T02:22:44.052Z,9.03
2017-06-18T02:25:11.905Z,7.17
2017-06-18T02:27:40.588Z,8.10
2017-06-18T02:30:08.253Z,5.23
2017-06-18T02:32:35.936Z,9.60
2017-06-18T02:35:03.557Z,8.03
2017-06-18T02:37:31.339Z,6.60
2017-06-18T02:39:59.102Z,8.00
2017-06-18T02:42:26.749Z,6.77
2017-06-18T02:44:54.528Z,9.83
2017-06-18T02:47:22.316Z,6.50
2017-06-18T02:49:50.058Z,6.20
2017-06-18T02:52:17.821Z,10.87
2017-06-18T02:54:45.468Z,8.63
2017-06-18T02:57:13.166Z,8.50
2017-06-18T02:59:40.909Z,8.90
2017-06-18T03:02:10.022Z,7.00
2017-06-18T03:04:37.789Z,9.20
2017-06-18T03:07:05.409Z,9.23
2017-06-18T03:09:33.195Z,8.27
2017-06-18T03:12:00.850Z,11.30
2017-06-18T03:14:28.469Z,7.90
2017-06-18T03:16:57.001Z,11.40
2017-06-18T03:19:24.763Z,8.60
2017-06-18T03:22:01.422Z,10.73
2017-06-18T03:24:29.041Z,10.77
2017-06-18T03:26:57.494Z,11.00
2017-06-18T03:29:25.267Z,9.80
2017-06-18T03:31:52.927Z,7.33
2017-06-18T03:34:20.770Z,7.90
2017-06-18T03:36:48.430Z,8.47
2017-06-18T03:39:16.298Z,8.47
2017-06-18T03:41:43.935Z,7.00
2017-06-18T03:44:11.571Z,9.50
2017-06-18T03:46:39.989Z,12.70
2017-06-18T03:49:07.610Z,6.50
2017-06-18T03:51:36.050Z,7.37
2017-06-18T03:54:03.677Z,6.87
2017-06-18T03:56:31.297Z,8.63
2017-06-18T03:58:59.156Z,11.70
2017-06-18T04:01:26.787Z,7.07
2017-06-18T04:03:54.475Z,9.10
2017-06-18T04:06:22.217Z,8.60
2017-06-18T04:08:49.892Z,7.63
2017-06-18T04:11:17.541Z,10.37
2017-06-18T04:13:45.217Z,10.20
2017-06-18T04:16:12.981Z,8.83
2017-06-18T04:18:40.605Z,8.97
2017-06-18T04:21:08.225Z,8.43
2017-06-18T04:23:36.769Z,12.20
2017-06-18T04:26:04.450Z,12.37
2017-06-18T04:28:32.124Z,9.67
2017-06-18T04:30:59.754Z,7.47
2017-06-18T04:33:27.440Z,8.53
2017-06-18T04:35:55.089Z,9.60
2017-06-18T04:38:22.844Z,12.63
2017-06-18T04:40:50.636Z,8.03
2017-06-18T04:43:18.257Z,8.30
2017-06-18T04:45:45.876Z,7.63
2017-06-18T04:48:14.293Z,10.87
2017-06-18T04:50:41.922Z,10.20
2017-06-18T04:53:10.353Z,6.57
2017-06-18T04:55:38.035Z,8.63
2017-06-18T04:58:05.793Z,11.73
2017-06-18T05:00:33.644Z,10.30
2017-06-18T05:03:01.414Z,13.20
2017-06-18T05:05:29.090Z,10.17
2017-06-18T05:07:56.954Z,13.60
2017-06-18T05:10:24.701Z,11.97
2017-06-18T05:12:52.362Z,9.40
2017-06-18T05:15:19.990Z,10.17
2017-06-18T05:17:47.789Z,13.93
2017-06-18T05:20:15.450Z,13.03
2017-06-18T05:22:43.135Z,9.77
2017-06-18T05:25:10.789Z,14.03
2017-06-18T05:27:38.642Z,7.93
2017-06-18T05:30:06.315Z,8.43
2017-06-18T05:32:33.986Z,12.90
2017-06-18T05:35:01.609Z,8.43
2017-06-18T05:37:29.391Z,7.60
2017-06-18T05:39:57.051Z,11.80
2017-06-18T05:42:24.841Z,12.20
2017-06-18T05:44:52.493Z,13.70
2017-06-18T05:47:20.117Z,8.77
2017-06-18T05:49:47.798Z,10.87
2017-06-18T05:52:15.462Z,12.90
2017-06-18T05:54:43.228Z,8.87
2017-06-18T05:57:10.921Z,10.20
2017-06-18T05:59:38.565Z,13.40
2017-06-18T06:02:06.339Z,11.47
2017-06-18T06:04:34.186Z,10.80
2017-06-18T06:07:01.877Z,12.90
2017-06-18T06:09:30.428Z,8.33
2017-06-18T06:11:58.054Z,13.93
2017-06-18T06:14:25.853Z,13.10
2017-06-18T06:16:53.618Z,12.83
2017-06-18T06:19:21.418Z,10.63
2017-06-18T06:21:49.888Z,8.60
2017-06-18T06:24:17.528Z,10.57
2017-06-18T06:26:45.203Z,13.53
2017-06-18T06:29:12.829Z,11.63
2017-06-18T06:31:40.506Z,11.90
2017-06-18T06:34:08.171Z,10.23
2017-06-18T06:36:35.792Z,7.47
2017-06-18T06:39:03.599Z,8.60
2017-06-18T06:41:31.363Z,8.33
2017-06-18T06:43:59.127Z,7.90
2017-06-18T06:46:26.745Z,7.30
2017-06-18T06:48:54.554Z,9.83
2017-06-18T06:51:22.316Z,10.40
2017-06-18T06:53:49.978Z,11.80
2017-06-18T06:56:17.645Z,9.40
2017-06-18T06:58:45.277Z,10.37
2017-06-18T07:01:12.917Z,8.07
2017-06-18T07:03:41.376Z,8.00
2017-06-18T07:06:09.009Z,11.00
2017-06-18T07:08:36.681Z,9.03
2017-06-18T07:11:04.433Z,7.30
2017-06-18T07:13:32.061Z,9.37
2017-06-18T07:15:59.779Z,6.87
2017-06-18T07:18:27.519Z,8.20
2017-06-18T07:20:55.184Z,7.67
2017-06-18T07:23:22.947Z,9.50
2017-06-18T07:25:50.707Z,6.20
2017-06-18T07:28:18.472Z,7.63
2017-06-18T07:30:46.097Z,8.10
2017-06-18T07:33:14.515Z,7.93
2017-06-18T07:35:42.189Z,7.50
2017-06-18T07:38:09.855Z,7.63
2017-06-18T07:40:37.599Z,7.43
2017-06-18T07:43:05.367Z,6.23
2017-06-18T07:45:33.239Z,6.43
2017-06-18T07:48:00.895Z,6.30
2017-06-18T07:50:28.517Z,7.47
2017-06-18T07:52:56.319Z,10.10
2017-06-18T07:55:23.984Z,8.90
2017-06-18T07:57:51.747Z,9.20
2017-06-18T08:00:19.535Z,9.40
2017-06-18T08:02:47.168Z,5.97
2017-06-18T08:05:14.822Z,6.63
2017-06-18T08:07:42.599Z,5.93
2017-06-18T08:10:10.383Z,7.33
2017-06-18T08:12:38.230Z,7.37
2017-06-18T08:15:05.850Z,9.93
2017-06-18T08:17:33.656Z,6.67
2017-06-18T08:20:01.339Z,7.57
2017-06-18T08:22:29.006Z,7.07
2017-06-18T08:24:56.744Z,7.60
2017-06-18T08:27:24.410Z,7.40
2017-06-18T08:29:52.168Z,4.80
2017-06-18T08:32:19.829Z,8.40
2017-06-18T08:34:47.597Z,7.50
2017-06-18T08:37:15.480Z,4.33
2017-06-18T08:39:43.226Z,5.40
2017-06-18T08:42:10.991Z,5.50
2017-06-18T08:44:38.630Z,6.70
2017-06-18T08:47:06.301Z,7.53
2017-06-18T08:49:33.921Z,6.90
2017-06-18T08:52:02.457Z,6.60
2017-06-18T08:54:30.221Z,6.90
2017-06-18T08:56:57.841Z,4.13
2017-06-18T08:59:25.647Z,4.67
2017-06-18T09:01:53.309Z,6.40
2017-06-18T09:04:20.933Z,4.40
2017-06-18T09:06:48.585Z,7.83
2017-06-18T09:09:17.012Z,5.10
2017-06-18T09:11:44.790Z,5.53
2017-06-18T09:14:12.413Z,6.50
2017-06-18T09:16:40.206Z,7.53
2017-06-18T09:19:07.863Z,7.10
2017-06-18T09:21:35.486Z,6.53
2017-06-18T09:24:03.290Z,6.77
2017-06-18T09:26:30.954Z,6.43
2017-06-18T09:28:58.717Z,6.10
2017-06-18T09:31:26.399Z,3.67
2017-06-18T09:33:54.054Z,4.50
2017-06-18T09:36:21.717Z,3.80
2017-06-18T09:38:49.363Z,4.93
2017-06-18T09:41:16.986Z,4.30
2017-06-18T09:43:44.704Z,5.40
2017-06-18T09:46:12.330Z,4.73
2017-06-18T09:48:40.168Z,4.90
2017-06-18T09:51:08.609Z,7.63
2017-06-18T09:53:36.234Z,7.47
2017-06-18T09:56:04.022Z,6.10
2017-06-18T09:58:31.682Z,6.80
2017-06-18T10:00:59.353Z,5.00
2017-06-18T10:03:27.002Z,6.00
2017-06-18T10:05:54.667Z,7.57
2017-06-18T10:08:22.429Z,5.20
2017-06-18T10:10:50.196Z,5.10
2017-06-18T10:13:17.983Z,6.80
2017-06-18T10:15:45.827Z,4.10
2017-06-18T10:18:13.686Z,6.97
2017-06-18T10:20:41.366Z,5.67
2017-06-18T10:23:14.820Z,6.17
2017-06-18T10:25:42.533Z,6.63
2017-06-18T10:28:10.173Z,6.83
2017-06-18T10:30:37.793Z,4.50
2017-06-18T10:33:05.517Z,6.37
2017-06-18T10:35:33.143Z,5.40
2017-06-18T10:38:00.770Z,4.90
2017-06-18T10:40:29.217Z,6.40
2017-06-18T10:42:56.967Z,4.00
2017-06-18T10:45:24.589Z,5.97
2017-06-18T10:47:52.394Z,5.20
2017-06-18T10:50:20.031Z,5.43
2017-06-18T10:52:47.654Z,7.00
2017-06-18T10:55:16.085Z,7.27
2017-06-18T10:57:43.710Z,4.73
2017-06-18T11:00:12.238Z,5.37
2017-06-18T11:02:40.028Z,6.80
2017-06-18T11:05:07.682Z,8.00
2017-06-18T11:07:35.348Z,5.90
2017-06-18T11:10:03.017Z,4.30
2017-06-18T11:12:30.666Z,5.00
2017-06-18T11:14:58.329Z,4.20
2017-06-18T11:17:26.074Z,4.80
2017-06-18T11:19:53.738Z,5.27
2017-06-18T11:22:21.405Z,4.33
2017-06-18T11:24:49.030Z,5.70
2017-06-18T11:27:16.728Z,4.93
2017-06-18T11:29:44.397Z,4.47
2017-06-18T11:32:12.149Z,6.23
2017-06-18T11:34:39.914Z,5.77
2017-06-18T11:37:07.537Z,5.60
2017-06-18T11:39:35.238Z,6.30
2017-06-18T11:42:03.024Z,5.90
2017-06-18T11:44:30.766Z,6.90
2017-06-18T11:46:58.632Z,5.87
2017-06-18T11:49:26.315Z,5.77
2017-06-18T11:51:53.979Z,6.60
2017-06-18T11:54:21.625Z,5.30
2017-06-18T11:56:49.380Z,4.40
2017-06-18T11:59:17.046Z,6.27
2017-06-18T12:01:44.728Z,5.07
2017-06-18T12:04:12.355Z,5.27
2017-06-18T12:06:40.132Z,5.50
2017-06-18T12:09:07.761Z,6.47
2017-06-18T12:11:35.454Z,6.43
2017-06-18T12:14:03.220Z,6.27
2017-06-18T12:16:30.893Z,5.73
2017-06-18T12:18:58.545Z,6.03
2017-06-18T12:21:26.222Z,6.90
2017-06-18T12:23:53.991Z,6.00
2017-06-18T12:26:21.857Z,5.80
2017-06-18T12:28:49.722Z,6.40
2017-06-18T12:31:17.527Z,6.97
2017-06-18T12:33:45.332Z,5.00
2017-06-18T12:36:15.513Z,5.37
2017-06-18T12:38:44.706Z,5.57
2017-06-18T12:41:12.438Z,7.10
2017-06-18T12:43:40.280Z,7.57
2017-06-18T12:46:07.897Z,5.63
2017-06-18T12:48:35.577Z,6.17
2017-06-18T12:51:03.198Z,5.27
2017-06-18T12:53:31.604Z,4.57
2017-06-18T12:55:59.321Z,5.70
2017-06-18T12:58:26.945Z,5.20
2017-06-18T13:00:54.610Z,5.40
2017-06-18T13:03:22.229Z,5.20
2017-06-18T13:05:49.853Z,5.83
2017-06-18T13:08:17.567Z,4.47
2017-06-18T13:10:46.012Z,5.03
2017-06-18T13:13:14.067Z,5.23
2017-06-18T13:15:41.686Z,4.47
2017-06-18T13:18:09.309Z,4.47
2017-06-18T13:20:37.053Z,4.07
2017-06-18T13:23:04.736Z,5.53
2017-06-18T13:25:32.478Z,5.20
2017-06-18T13:28:29.973Z,6.07
2017-06-18T13:30:57.717Z,5.03
2017-06-18T13:33:25.388Z,5.30
2017-06-18T13:35:53.013Z,5.87
2017-06-18T13:38:20.673Z,5.00
2017-06-18T13:40:48.298Z,5.27
2017-06-18T13:43:16.728Z,4.97
2017-06-18T13:45:44.494Z,5.40
2017-06-18T13:48:12.281Z,5.23
2017-06-18T13:50:40.021Z,4.10
2017-06-18T13:53:07.788Z,5.23
2017-06-18T13:55:35.432Z,4.50
2017-06-18T13:58:03.130Z,5.07
2017-06-18T14:00:30.981Z,4.00
2017-06-18T14:02:58.609Z,3.70
2017-06-18T14:05:26.262Z,3.93
2017-06-18T14:07:53.917Z,4.60
2017-06-18T14:10:21.542Z,4.67
2017-06-18T14:12:49.284Z,5.27
2017-06-18T14:15:17.048Z,5.37
2017-06-18T14:17:44.736Z,4.80
2017-06-18T14:20:12.578Z,4.70
2017-06-18T14:22:40.257Z,4.10
2017-06-18T14:25:07.930Z,4.60
2017-06-18T14:27:35.667Z,4.30
2017-06-18T14:30:03.431Z,4.00
2017-06-18T14:32:31.115Z,4.77
2017-06-18T14:34:58.863Z,4.03
2017-06-18T14:37:26.634Z,3.90
2017-06-18T14:39:54.272Z,3.77
2017-06-18T14:42:22.075Z,4.03
2017-06-18T14:44:49.725Z,4.70
2017-06-18T14:47:17.391Z,4.63
2017-06-18T14:49:45.132Z,4.40
2017-06-18T14:52:12.899Z,3.87
2017-06-18T14:54:40.663Z,4.70
2017-06-18T14:57:08.309Z,3.60
2017-06-18T14:59:36.008Z,4.40
2017-06-18T15:02:03.771Z,4.40
2017-06-18T15:04:31.435Z,4.77
2017-06-18T15:06:59.178Z,4.60
2017-06-18T15:09:26.942Z,5.10
2017-06-18T15:11:54.707Z,4.63
2017-06-18T15:14:22.472Z,3.93
2017-06-18T15:16:50.098Z,4.57
2017-06-18T15:19:17.815Z,4.90
2017-06-18T15:21:45.661Z,4.77
2017-06-18T15:24:13.422Z,5.43
2017-06-18T15:26:42.345Z,4.93
2017-06-18T15:29:10.078Z,5.03
2017-06-18T15:31:37.843Z,4.90
2017-06-18T15:34:05.462Z,5.07
2017-06-18T15:36:33.183Z,3.60
2017-06-18T15:39:00.841Z,4.33
2017-06-18T15:41:28.602Z,4.50
2017-06-18T15:43:56.357Z,4.90
2017-06-18T15:46:23.978Z,4.83
2017-06-18T15:48:51.654Z,4.27
2017-06-18T15:51:19.295Z,4.43
2017-06-18T15:53:47.119Z,4.00
2017-06-18T15:56:14.871Z,4.00
2017-06-18T15:58:42.555Z,3.80
2017-06-18T16:01:10.235Z,4.67
2017-06-18T16:03:38.061Z,4.50
2017-06-18T16:06:05.743Z,4.70
2017-06-18T16:08:33.550Z,3.93
2017-06-18T16:11:01.354Z,4.33
2017-06-18T16:13:29.023Z,4.37
2017-06-18T16:15:56.694Z,4.90
2017-06-18T16:18:24.442Z,3.97
2017-06-18T16:20:52.122Z,4.80
2017-06-18T16:23:19.800Z,4.10
2017-06-18T16:25:48.136Z,5.17
2017-06-18T16:28:16.510Z,4.63
2017-06-18T16:30:44.805Z,4.03
2017-06-18T16:33:12.582Z,4.43
2017-06-18T16:35:40.440Z,4.40
2017-06-18T16:38:08.196Z,4.50
2017-06-18T16:40:35.881Z,4.53
2017-06-18T16:43:03.936Z,4.17
2017-06-18T16:45:31.797Z,4.70
2017-06-18T16:47:59.482Z,3.60
2017-06-18T16:50:27.265Z,4.50
2017-06-18T16:52:55.199Z,4.40
2017-06-18T16:55:22.826Z,4.10
2017-06-18T16:57:50.496Z,3.90
2017-06-18T17:00:18.445Z,4.40
2017-06-18T17:02:46.156Z,3.77
2017-06-18T17:05:13.784Z,4.57
2017-06-18T17:07:41.569Z,4.47
2017-06-18T17:10:09.334Z,4.10
2017-06-18T17:12:36.997Z,4.60
2017-06-18T17:15:04.864Z,4.17
2017-06-18T17:17:32.489Z,3.90
2017-06-18T17:20:00.202Z,4.00
2017-06-18T17:22:27.952Z,4.20
2017-06-18T17:24:57.528Z,4.40
2017-06-18T17:27:25.363Z,4.80
2017-06-18T17:29:53.818Z,4.50
2017-06-18T17:32:21.498Z,4.60
2017-06-18T17:34:49.158Z,4.47
2017-06-18T17:37:16.891Z,4.20
2017-06-18T17:39:44.568Z,4.23
2017-06-18T17:42:12.197Z,4.60
2017-06-18T17:44:39.901Z,4.60
2017-06-18T17:47:07.665Z,4.30
2017-06-18T17:49:35.403Z,4.63
2017-06-18T17:52:03.077Z,4.63
2017-06-18T17:54:30.731Z,3.97
2017-06-18T17:56:58.386Z,4.70
2017-06-18T17:59:26.040Z,4.70
2017-06-18T18:01:53.731Z,4.17
2017-06-18T18:04:21.401Z,4.00
2017-06-18T18:06:49.243Z,4.70
2017-06-18T18:09:16.927Z,4.87
2017-06-18T18:11:44.773Z,4.40
2017-06-18T18:14:12.397Z,4.13
2017-06-18T18:16:40.198Z,4.30
2017-06-18T18:19:08.065Z,4.30
2017-06-18T18:21:35.686Z,4.43
2017-06-18T18:24:03.491Z,4.10
2017-06-18T18:26:31.253Z,4.57
2017-06-18T18:28:59.020Z,3.70
2017-06-18T18:31:26.702Z,4.73
2017-06-18T18:33:54.444Z,4.40
2017-06-18T18:36:22.066Z,4.40
2017-06-18T18:38:49.872Z,4.40
2017-06-18T18:41:17.502Z,4.30
2017-06-18T18:43:45.298Z,4.33
2017-06-18T18:46:13.083Z,4.33
2017-06-18T18:48:40.927Z,4.10
2017-06-18T18:51:08.716Z,4.00
2017-06-18T18:53:36.369Z,4.70
2017-06-18T18:56:04.039Z,5.07
2017-06-18T18:58:31.686Z,4.23
2017-06-18T19:00:59.353Z,5.20
2017-06-18T19:03:27.031Z,4.83
2017-06-18T19:05:54.658Z,4.50
2017-06-18T19:08:22.530Z,5.00
2017-06-18T19:10:50.309Z,5.00
2017-06-18T19:13:17.933Z,5.50
2017-06-18T19:15:45.638Z,4.50
2017-06-18T19:18:13.381Z,4.50
2017-06-18T19:20:41.148Z,5.23
2017-06-18T19:23:08.931Z,4.83
2017-06-18T19:25:36.676Z,5.70
2017-06-18T19:28:04.543Z,4.70
2017-06-18T19:30:32.171Z,4.63
2017-06-18T19:32:59.789Z,4.73
2017-06-18T19:35:27.433Z,5.23
2017-06-18T19:37:55.058Z,4.50
2017-06-18T19:40:22.766Z,4.53
2017-06-18T19:42:50.426Z,4.90
2017-06-18T19:45:18.180Z,4.60
2017-06-18T19:47:45.825Z,4.83
2017-06-18T19:50:13.446Z,4.70
2017-06-18T19:52:42.082Z,5.13
2017-06-18T19:55:09.705Z,5.83
2017-06-18T19:57:37.509Z,6.20
2017-06-18T20:00:05.185Z,7.67
2017-06-18T20:02:32.935Z,6.10
2017-06-18T20:05:00.806Z,6.23
2017-06-18T20:07:28.448Z,5.77
2017-06-18T20:09:56.150Z,6.97
2017-06-18T20:12:23.801Z,5.90
2017-06-18T20:14:51.426Z,6.63
2017-06-18T20:17:19.214Z,5.40
2017-06-18T20:19:46.890Z,6.57
2017-06-18T20:22:14.541Z,6.40
2017-06-18T20:24:42.224Z,6.20
2017-06-18T20:27:09.861Z,7.20
2017-06-18T20:29:37.625Z,6.43
2017-06-18T20:32:05.246Z,6.97
2017-06-18T20:34:32.975Z,6.30
2017-06-18T20:37:00.816Z,8.57
2017-06-18T20:39:28.581Z,7.80
2017-06-18T20:41:56.257Z,9.03
2017-06-18T20:44:23.934Z,9.00
2017-06-18T20:46:51.668Z,9.03
2017-06-18T20:49:19.437Z,8.40
2017-06-18T20:51:47.110Z,8.33
2017-06-18T20:54:14.778Z,8.97
2017-06-18T20:56:42.519Z,7.93
2017-06-18T20:59:10.142Z,7.60
2017-06-18T21:01:37.946Z,7.70
2017-06-18T21:04:05.572Z,8.20
2017-06-18T21:06:33.472Z,8.70
2017-06-18T21:09:01.245Z,7.40
2017-06-18T21:11:29.002Z,7.20
2017-06-18T21:13:56.654Z,7.60
2017-06-18T21:16:24.341Z,7.97
2017-06-18T21:18:51.990Z,7.90
2017-06-18T21:21:19.752Z,6.60
2017-06-18T21:23:47.425Z,8.47
2017-06-18T21:26:15.046Z,8.00
2017-06-18T21:28:42.759Z,7.73
2017-06-18T21:31:10.502Z,8.00
2017-06-18T21:33:38.121Z,8.40
2017-06-18T21:36:05.821Z,8.43
2017-06-18T21:38:33.602Z,8.43
2017-06-18T21:41:01.234Z,8.30
2017-06-18T21:43:28.941Z,8.07
2017-06-18T21:45:56.566Z,8.00
2017-06-18T21:48:24.251Z,7.53
2017-06-18T21:50:52.001Z,8.10
2017-06-18T21:53:19.763Z,8.33
2017-06-18T21:55:47.409Z,7.63
2017-06-18T21:58:15.105Z,7.53
2017-06-18T22:00:42.874Z,7.30
2017-06-18T22:03:10.529Z,7.77
2017-06-18T22:05:38.149Z,7.10
2017-06-18T22:08:05.793Z,7.20
2017-06-18T22:10:33.805Z,7.73
2017-06-18T22:13:01.674Z,7.77
2017-06-18T22:15:29.294Z,7.57
2017-06-18T22:17:56.918Z,7.87
2017-06-18T22:20:24.579Z,7.80
2017-06-18T22:22:52.345Z,6.70
2017-06-18T22:25:20.014Z,7.23
2017-06-18T22:27:47.749Z,6.97
2017-06-18T22:30:15.402Z,7.30
2017-06-18T22:32:43.067Z,7.97
2017-06-18T22:35:10.747Z,7.80
2017-06-18T22:37:38.599Z,7.80
2017-06-18T22:40:06.231Z,7.90
2017-06-18T22:42:34.025Z,7.30
2017-06-18T22:45:01.789Z,7.33
2017-06-18T22:47:29.410Z,7.30
2017-06-18T22:49:58.428Z,6.93
2017-06-18T22:52:26.312Z,7.10
2017-06-18T22:54:53.989Z,6.77
2017-06-18T22:57:21.839Z,7.30
2017-06-18T22:59:49.601Z,7.00
2017-06-18T23:02:17.381Z,8.10
2017-06-18T23:04:45.140Z,7.40
2017-06-18T23:07:12.999Z,7.13
2017-06-18T23:09:40.648Z,7.77
2017-06-18T23:12:08.527Z,7.50
2017-06-18T23:14:36.395Z,6.20
2017-06-18T23:17:04.021Z,5.93
2017-06-18T23:19:31.637Z,6.27
2017-06-18T23:21:59.404Z,6.80
2017-06-18T23:24:27.029Z,7.00
2017-06-18T23:26:54.828Z,7.90
2017-06-18T23:29:22.671Z,7.10
2017-06-18T23:31:50.295Z,7.67
2017-06-18T23:34:18.021Z,7.90
2017-06-18T23:36:45.641Z,6.70
2017-06-18T23:39:13.422Z,7.03
2017-06-18T23:41:41.037Z,8.10
2017-06-18T23:44:08.661Z,8.27
2017-06-18T23:46:36.404Z,7.97
2017-06-18T23:49:04.024Z,7.03
2017-06-18T23:51:31.707Z,8.40
2017-06-18T23:53:59.411Z,7.77
2017-06-18T23:56:27.053Z,7.50
2017-06-18T23:58:54.729Z,6.33
